Time;durP1;ratioP1;P1;durP2;ratioP2;P2;SDS_P1;SDS_P2;PMS_P1;PMS_P2;Temp;Humidity;BMP_temperature;BMP_pressure;BME280_temperature;BME280_humidity;BME280_pressure;Samples;Min_cycle;Max_cycle;Signal;HPM_P1;HPM_P2
2023/04/06 00:01:40;;;;;;;11.15;6.60;;;5.40;68.20;;;;;;5055772;28;20508;-70
2023/04/06 00:04:06;;;;;;;9.40;7.13;;;5.50;68.50;;;;;;5060549;28;20052;-70
2023/04/06 00:06:33;;;;;;;9.30;6.68;;;5.40;68.40;;;;;;5062615;28;20529;-70
2023/04/06 00:08:59;;;;;;;7.88;6.93;;;5.50;68.60;;;;;;5066229;28;20048;-70
2023/04/06 00:11:27;;;;;;;11.20;7.07;;;5.40;68.40;;;;;;5045707;28;20045;-70
2023/04/06 00:13:53;;;;;;;10.43;7.38;;;5.30;68.40;;;;;;5051529;28;20041;-70
2023/04/06 00:16:19;;;;;;;10.88;7.35;;;5.30;68.70;;;;;;5064741;28;20123;-70
2023/04/06 00:18:45;;;;;;;8.95;7.22;;;5.30;68.90;;;;;;5068352;28;20068;-70
2023/04/06 00:21:12;;;;;;;9.88;7.00;;;5.20;69.10;;;;;;5058808;28;20032;-70
2023/04/06 00:23:38;;;;;;;9.88;6.53;;;5.20;69.10;;;;;;5065825;28;20303;-70
2023/04/06 00:26:04;;;;;;;9.10;6.90;;;5.20;69.10;;;;;;5065454;28;20170;-71
2023/04/06 00:28:30;;;;;;;9.18;6.20;;;5.10;69.10;;;;;;5069519;28;20483;-72
2023/04/06 00:30:56;;;;;;;10.10;7.38;;;5.10;69.30;;;;;;5065818;28;20438;-69
2023/04/06 00:33:22;;;;;;;9.27;6.72;;;5.00;69.40;;;;;;5069925;28;20037;-71
2023/04/06 00:35:48;;;;;;;8.48;6.03;;;5.00;69.50;;;;;;5042879;28;20045;-69
2023/04/06 00:38:14;;;;;;;9.93;7.38;;;5.00;69.60;;;;;;5047323;28;20078;-69
2023/04/06 00:40:41;;;;;;;8.63;6.60;;;4.90;69.60;;;;;;5053741;28;20139;-69
2023/04/06 00:43:08;;;;;;;7.90;6.10;;;4.90;69.80;;;;;;5064063;28;20116;-69
2023/04/06 00:45:34;;;;;;;7.70;6.47;;;4.90;70.00;;;;;;5048930;28;20048;-69
2023/04/06 00:48:01;;;;;;;8.35;6.45;;;4.90;70.30;;;;;;5060238;28;20051;-69
2023/04/06 00:50:33;;;;;;;9.17;6.40;;;4.80;70.40;;;;;;5065040;28;20072;-69
2023/04/06 00:52:59;;;;;;;8.32;7.25;;;4.80;70.30;;;;;;5058869;28;20300;-70
2023/04/06 00:55:26;;;;;;;10.73;7.27;;;4.80;70.50;;;;;;5050369;28;20079;-69
2023/04/06 00:57:52;;;;;;;8.07;6.43;;;4.80;70.80;;;;;;5064103;28;20369;-69
2023/04/06 01:00:18;;;;;;;10.57;6.95;;;4.70;70.90;;;;;;5049479;28;20127;-71
2023/04/06 01:02:46;;;;;;;9.55;6.30;;;4.70;71.00;;;;;;5062838;28;20056;-69
2023/04/06 01:05:11;;;;;;;10.52;7.03;;;4.70;71.10;;;;;;5068474;28;20037;-69
2023/04/06 01:07:37;;;;;;;8.65;6.90;;;4.60;71.60;;;;;;5060666;28;20043;-72
2023/04/06 01:10:04;;;;;;;9.90;7.05;;;4.60;72.20;;;;;;5060395;28;20442;-69
2023/04/06 01:12:29;;;;;;;10.50;7.32;;;4.50;72.40;;;;;;5052830;28;20052;-69
2023/04/06 01:14:55;;;;;;;10.10;7.55;;;4.50;72.70;;;;;;5040552;28;20037;-72
2023/04/06 01:17:22;;;;;;;8.82;7.38;;;4.50;72.90;;;;;;5044125;28;20102;-71
2023/04/06 01:19:49;;;;;;;9.57;7.30;;;4.50;73.40;;;;;;5050053;28;20077;-69
2023/04/06 01:22:18;;;;;;;9.43;7.47;;;4.40;73.70;;;;;;5045870;28;20048;-69
2023/04/06 01:24:44;;;;;;;10.57;7.50;;;4.40;74.20;;;;;;5069925;28;20045;-70
2023/04/06 01:27:09;;;;;;;11.15;7.35;;;4.30;73.70;;;;;;5048815;28;20091;-70
2023/04/06 01:29:40;;;;;;;10.48;7.30;;;4.30;73.80;;;;;;5072500;28;20044;-69
2023/04/06 01:32:07;;;;;;;11.07;7.90;;;4.20;73.80;;;;;;5065760;28;20053;-70
2023/04/06 01:34:32;;;;;;;11.70;7.53;;;4.30;74.10;;;;;;5060719;28;20093;-69
2023/04/06 01:36:58;;;;;;;10.68;7.88;;;4.20;74.10;;;;;;5066681;28;20052;-69
2023/04/06 01:39:25;;;;;;;10.52;7.15;;;4.20;74.20;;;;;;5048836;28;20131;-70
2023/04/06 01:41:51;;;;;;;9.13;7.63;;;4.20;74.30;;;;;;5068251;28;20441;-70
2023/04/06 01:44:18;;;;;;;11.63;7.47;;;4.10;74.50;;;;;;5052141;28;20067;-70
2023/04/06 01:46:44;;;;;;;8.70;7.20;;;4.10;74.70;;;;;;5065953;28;20236;-70
2023/04/06 01:49:09;;;;;;;11.05;7.38;;;4.10;75.10;;;;;;5069181;28;20068;-69
2023/04/06 01:51:35;;;;;;;8.68;7.05;;;4.10;75.20;;;;;;5029170;28;20108;-70
2023/04/06 01:54:01;;;;;;;10.77;7.30;;;4.00;75.30;;;;;;5067117;28;20032;-70
2023/04/06 01:56:26;;;;;;;10.60;7.80;;;4.10;75.60;;;;;;5045453;28;20044;-69
2023/04/06 01:58:52;;;;;;;8.90;7.30;;;4.00;75.90;;;;;;5070622;28;20126;-69
2023/04/06 02:01:18;;;;;;;11.88;7.75;;;4.00;76.20;;;;;;5059224;28;20484;-69
2023/04/06 02:03:43;;;;;;;11.98;7.45;;;4.00;76.50;;;;;;5068203;28;20056;-69
2023/04/06 02:06:11;;;;;;;10.05;7.93;;;4.00;76.80;;;;;;5042275;28;20090;-72
2023/04/06 02:08:37;;;;;;;9.80;8.05;;;3.90;76.70;;;;;;5048443;28;21674;-71
2023/04/06 02:11:03;;;;;;;11.48;7.95;;;3.90;77.00;;;;;;5063901;28;20674;-71
2023/04/06 02:13:28;;;;;;;9.90;7.78;;;3.80;77.30;;;;;;5052195;28;20499;-70
2023/04/06 02:15:54;;;;;;;10.45;8.23;;;3.80;77.80;;;;;;5053544;28;20036;-69
2023/04/06 02:18:20;;;;;;;11.73;8.00;;;3.80;78.80;;;;;;5069355;28;20381;-69
2023/04/06 02:20:46;;;;;;;11.10;8.25;;;3.80;78.90;;;;;;5053993;28;20091;-72
2023/04/06 02:23:11;;;;;;;10.00;7.97;;;3.70;79.00;;;;;;5046955;28;20040;-71
2023/04/06 02:25:37;;;;;;;11.55;8.20;;;3.70;79.30;;;;;;5060367;28;20045;-69
2023/04/06 02:28:03;;;;;;;10.68;8.48;;;3.70;79.20;;;;;;5049482;28;20082;-69
2023/04/06 02:30:29;;;;;;;9.77;8.07;;;3.60;79.50;;;;;;5064061;28;20074;-69
2023/04/06 02:32:55;;;;;;;10.50;8.30;;;3.60;79.60;;;;;;5052771;28;20128;-70
2023/04/06 02:35:20;;;;;;;10.77;8.07;;;3.60;79.60;;;;;;5069855;28;20041;-70
2023/04/06 02:37:46;;;;;;;10.90;7.90;;;3.60;79.40;;;;;;5060704;28;20044;-70
2023/04/06 02:40:13;;;;;;;10.23;7.90;;;3.50;79.40;;;;;;5061789;28;20105;-70
2023/04/06 02:42:39;;;;;;;9.57;8.07;;;3.50;79.60;;;;;;5068703;28;20737;-69
2023/04/06 02:45:05;;;;;;;11.40;8.27;;;3.40;79.90;;;;;;5062815;28;20040;-69
2023/04/06 02:47:31;;;;;;;11.30;7.93;;;3.30;81.00;;;;;;5049805;28;20044;-69
2023/04/06 02:49:56;;;;;;;9.63;7.45;;;3.20;81.70;;;;;;5066092;28;20106;-70
2023/04/06 02:52:22;;;;;;;9.13;7.75;;;3.20;82.00;;;;;;5061118;28;20064;-69
2023/04/06 02:54:47;;;;;;;11.20;8.32;;;3.20;82.90;;;;;;5064730;28;20048;-70
2023/04/06 02:57:13;;;;;;;10.75;8.32;;;3.20;82.90;;;;;;5043871;28;20080;-70
2023/04/06 02:59:39;;;;;;;10.05;8.10;;;3.20;83.10;;;;;;5061685;28;20464;-69
2023/04/06 03:02:04;;;;;;;12.02;8.40;;;3.20;83.00;;;;;;5067187;28;20537;-69
2023/04/06 03:04:30;;;;;;;10.20;8.02;;;3.20;83.10;;;;;;5033524;28;20060;-69
2023/04/06 03:06:56;;;;;;;10.68;8.55;;;3.20;83.60;;;;;;5066224;28;20427;-70
2023/04/06 03:09:24;;;;;;;10.50;7.95;;;3.20;84.80;;;;;;5060471;28;20051;-70
2023/04/06 03:11:50;;;;;;;10.98;8.88;;;3.20;84.40;;;;;;5071301;28;20472;-70
2023/04/06 03:14:17;;;;;;;11.02;8.32;;;3.10;86.00;;;;;;5063655;28;20040;-69
2023/04/06 03:16:43;;;;;;;10.13;8.10;;;3.10;86.20;;;;;;5043372;28;20060;-69
2023/04/06 03:19:09;;;;;;;11.35;8.13;;;3.10;86.60;;;;;;5048290;28;20124;-69
2023/04/06 03:21:35;;;;;;;9.57;7.80;;;3.10;86.60;;;;;;5065746;28;20136;-69
2023/04/06 03:24:00;;;;;;;10.63;8.05;;;3.10;87.10;;;;;;5061202;28;20036;-69
2023/04/06 03:26:26;;;;;;;9.57;8.20;;;3.10;87.10;;;;;;5046023;28;20052;-70
2023/04/06 03:28:51;;;;;;;10.65;8.55;;;3.10;87.30;;;;;;5062740;28;20048;-71
2023/04/06 03:31:17;;;;;;;11.00;8.68;;;3.10;87.80;;;;;;5069061;28;20040;-69
2023/04/06 03:33:46;;;;;;;11.50;8.88;;;3.00;87.60;;;;;;5064013;28;20028;-69
2023/04/06 03:36:11;;;;;;;11.68;9.05;;;3.10;87.70;;;;;;5062362;28;20037;-69
2023/04/06 03:38:37;;;;;;;11.63;8.50;;;3.00;88.20;;;;;;5043876;28;20041;-69
2023/04/06 03:41:03;;;;;;;11.32;8.80;;;3.00;88.00;;;;;;5065961;28;20155;-69
2023/04/06 03:43:28;;;;;;;11.38;9.00;;;3.00;87.70;;;;;;5058578;28;20484;-69
2023/04/06 03:45:54;;;;;;;11.93;8.65;;;3.00;88.30;;;;;;5067354;28;20476;-69
2023/04/06 03:48:20;;;;;;;12.95;9.55;;;2.90;88.80;;;;;;5047715;28;20044;-70
2023/04/06 03:50:45;;;;;;;9.95;8.38;;;2.90;88.60;;;;;;5066360;28;20050;-70
2023/04/06 03:53:11;;;;;;;15.30;9.40;;;2.90;88.20;;;;;;5069072;28;20036;-70
2023/04/06 03:55:41;;;;;;;12.85;9.55;;;3.00;88.30;;;;;;5069314;28;20045;-70
2023/04/06 03:58:06;;;;;;;13.77;9.82;;;2.90;88.60;;;;;;5049830;28;20408;-70
2023/04/06 04:00:32;;;;;;;10.73;8.85;;;3.00;90.40;;;;;;5053373;28;20045;-70
2023/04/06 04:02:58;;;;;;;14.50;9.77;;;2.90;90.40;;;;;;5065436;28;20075;-70
2023/04/06 04:05:27;;;;;;;12.88;9.73;;;3.00;89.90;;;;;;5069776;28;20470;-70
2023/04/06 04:07:53;;;;;;;10.93;9.52;;;3.00;90.10;;;;;;5059842;28;20036;-70
2023/04/06 04:10:18;;;;;;;15.18;9.88;;;2.90;90.90;;;;;;5061557;28;20045;-70
2023/04/06 04:12:44;;;;;;;11.23;9.20;;;2.80;91.50;;;;;;5066809;28;20067;-70
2023/04/06 04:15:10;;;;;;;11.52;9.02;;;2.80;92.00;;;;;;5073572;28;20090;-70
2023/04/06 04:17:35;;;;;;;11.32;8.90;;;2.80;92.10;;;;;;5059498;28;20391;-70
2023/04/06 04:20:01;;;;;;;12.40;9.55;;;2.80;92.00;;;;;;5069615;28;20581;-70
2023/04/06 04:22:30;;;;;;;13.18;9.18;;;2.70;91.90;;;;;;5064665;28;20506;-70
2023/04/06 04:24:55;;;;;;;11.32;9.63;;;2.70;92.70;;;;;;5053978;28;20070;-70
2023/04/06 04:27:21;;;;;;;13.52;9.68;;;2.60;92.70;;;;;;5068776;28;20036;-70
2023/04/06 04:29:47;;;;;;;13.57;9.70;;;2.60;93.00;;;;;;5042934;28;20114;-69
2023/04/06 04:32:13;;;;;;;12.90;9.55;;;2.70;92.90;;;;;;5052828;28;20454;-70
2023/04/06 04:34:40;;;;;;;13.60;10.25;;;2.70;93.00;;;;;;5066789;28;20036;-69
2023/04/06 04:37:06;;;;;;;12.43;9.02;;;2.70;93.20;;;;;;5064752;28;20094;-70
2023/04/06 04:39:32;;;;;;;13.30;10.43;;;2.70;93.40;;;;;;5066831;28;20120;-70
2023/04/06 04:41:57;;;;;;;14.43;10.40;;;2.70;93.70;;;;;;5064928;28;20060;-70
2023/04/06 04:44:23;;;;;;;12.70;10.32;;;2.70;93.60;;;;;;5043776;28;20079;-70
2023/04/06 04:46:49;;;;;;;12.85;10.00;;;2.80;93.60;;;;;;5065734;28;20170;-70
2023/04/06 04:49:15;;;;;;;13.23;9.77;;;2.80;93.10;;;;;;5069558;28;20488;-70
2023/04/06 04:51:40;;;;;;;12.90;10.10;;;2.90;92.90;;;;;;5060925;28;20090;-70
2023/04/06 04:54:07;;;;;;;14.32;10.52;;;2.90;92.70;;;;;;5070348;28;20046;-70
2023/04/06 04:56:32;;;;;;;13.80;10.27;;;2.90;92.60;;;;;;5061735;28;20052;-70
2023/04/06 04:58:58;;;;;;;14.30;11.77;;;2.90;92.30;;;;;;5050691;28;20233;-70
2023/04/06 05:01:24;;;;;;;13.15;10.50;;;2.90;92.20;;;;;;5044754;28;20049;-70
2023/04/06 05:03:50;;;;;;;12.48;11.00;;;2.90;92.30;;;;;;5044966;28;20049;-71
2023/04/06 05:06:15;;;;;;;13.63;10.52;;;2.90;92.20;;;;;;5044060;28;20119;-70
2023/04/06 05:08:44;;;;;;;18.08;10.95;;;2.90;91.90;;;;;;5044722;28;20128;-70
2023/04/06 05:11:10;;;;;;;15.38;11.50;;;2.90;91.70;;;;;;5050205;28;20135;-70
2023/04/06 05:13:36;;;;;;;14.35;10.52;;;3.00;92.00;;;;;;5050013;28;20444;-70
2023/04/06 05:16:01;;;;;;;15.13;10.90;;;2.90;91.80;;;;;;5048038;28;20128;-70
2023/04/06 05:18:30;;;;;;;14.98;11.73;;;3.00;91.90;;;;;;5047599;28;20083;-70
2023/04/06 05:20:55;;;;;;;15.02;11.48;;;3.00;91.90;;;;;;5042370;28;20072;-70
2023/04/06 05:23:21;;;;;;;17.88;11.45;;;3.00;91.60;;;;;;5044771;28;20041;-70
2023/04/06 05:25:47;;;;;;;14.15;11.10;;;3.00;91.80;;;;;;5045443;28;20086;-70
2023/04/06 05:28:14;;;;;;;13.88;11.73;;;3.00;92.00;;;;;;5046598;28;20048;-69
2023/04/06 05:30:40;;;;;;;14.85;10.43;;;3.00;92.00;;;;;;5048293;28;20485;-69
2023/04/06 05:33:05;;;;;;;14.25;10.70;;;3.10;91.90;;;;;;5043144;28;20049;-70
2023/04/06 05:35:31;;;;;;;15.02;11.10;;;3.10;91.70;;;;;;5046692;28;20369;-70
2023/04/06 05:37:57;;;;;;;13.00;11.00;;;3.20;91.10;;;;;;5048014;28;20041;-69
2023/04/06 05:40:23;;;;;;;14.13;11.00;;;3.20;90.90;;;;;;5047076;28;20477;-70
2023/04/06 05:42:49;;;;;;;13.68;10.95;;;3.30;90.70;;;;;;5050782;28;20053;-70
2023/04/06 05:45:16;;;;;;;13.07;11.00;;;3.30;90.50;;;;;;5048497;28;20045;-71
2023/04/06 05:47:43;;;;;;;15.40;11.45;;;3.40;90.30;;;;;;5039966;28;20049;-70
2023/04/06 05:50:10;;;;;;;17.67;10.98;;;3.40;90.40;;;;;;5038718;28;20056;-70
2023/04/06 05:52:36;;;;;;;12.95;10.57;;;3.50;90.40;;;;;;5047003;28;20130;-70
2023/04/06 05:55:02;;;;;;;16.45;11.45;;;3.50;90.30;;;;;;5045859;28;20083;-71
2023/04/06 05:57:28;;;;;;;16.48;11.88;;;3.50;90.30;;;;;;5045593;28;20045;-71
2023/04/06 05:59:55;;;;;;;17.58;11.32;;;3.60;90.40;;;;;;5047149;28;20049;-73
2023/04/06 06:02:21;;;;;;;14.95;11.02;;;3.60;90.50;;;;;;5061994;28;20048;-70
2023/04/06 06:04:46;;;;;;;14.70;11.10;;;3.60;90.40;;;;;;5068706;28;20408;-70
2023/04/06 06:07:12;;;;;;;17.00;11.40;;;3.60;90.30;;;;;;5057991;28;20052;-70
2023/04/06 06:09:38;;;;;;;15.20;11.10;;;3.70;90.10;;;;;;5055025;28;20043;-70
2023/04/06 06:12:03;;;;;;;14.95;11.40;;;3.70;90.00;;;;;;5051652;28;20051;-69
2023/04/06 06:14:29;;;;;;;14.93;11.35;;;3.80;89.90;;;;;;5065416;28;20075;-71
2023/04/06 06:16:57;;;;;;;16.52;11.45;;;3.90;89.50;;;;;;5069805;28;20396;-70
2023/04/06 06:19:27;;;;;;;17.88;12.00;;;3.90;89.30;;;;;;5051916;28;20082;-71
2023/04/06 06:22:02;;;;;;;14.98;11.43;;;4.00;88.90;;;;;;5052547;28;20044;-71
2023/04/06 06:24:31;;;;;;;17.63;12.82;;;4.10;88.70;;;;;;5051081;28;20040;-71
2023/04/06 06:27:00;;;;;;;15.00;12.25;;;4.10;88.60;;;;;;5064813;28;20588;-70
2023/04/06 06:29:43;;;;;;;14.70;12.60;;;4.20;88.60;;;;;;5063837;28;20082;-70
2023/04/06 06:32:09;;;;;;;15.23;12.23;;;4.30;88.20;;;;;;5056893;28;20089;-70
2023/04/06 06:34:41;;;;;;;15.80;12.25;;;4.40;88.00;;;;;;5044731;28;20036;-71
2023/04/06 06:37:10;;;;;;;17.30;12.80;;;4.40;87.50;;;;;;5059883;28;20110;-70
2023/04/06 06:39:37;;;;;;;16.45;13.00;;;4.50;87.00;;;;;;5008507;28;20065;-69
2023/04/06 06:42:03;;;;;;;16.65;12.23;;;4.50;86.30;;;;;;5022858;28;20390;-71
2023/04/06 06:44:29;;;;;;;17.90;12.77;;;4.60;85.90;;;;;;5026081;28;20152;-70
2023/04/06 06:46:54;;;;;;;15.70;12.80;;;4.60;85.30;;;;;;5025553;28;20041;-70
2023/04/06 06:49:20;;;;;;;16.40;12.60;;;4.70;84.90;;;;;;5025216;28;20057;-71
2023/04/06 06:51:46;;;;;;;18.73;13.13;;;4.80;84.40;;;;;;4991810;28;20049;-70
2023/04/06 06:54:12;;;;;;;16.10;13.02;;;4.80;84.20;;;;;;5004971;28;20124;-70
2023/04/06 06:56:39;;;;;;;13.45;12.02;;;4.80;84.10;;;;;;5018103;28;20045;-70
2023/04/06 06:59:05;;;;;;;17.85;13.60;;;5.00;83.90;;;;;;5021215;28;20124;-70
2023/04/06 07:01:34;;;;;;;15.00;12.60;;;5.10;83.90;;;;;;5023183;28;20111;-70
2023/04/06 07:04:00;;;;;;;16.25;13.50;;;5.10;83.60;;;;;;5018916;28;20296;-70
2023/04/06 07:06:35;;;;;;;18.85;13.38;;;5.10;83.20;;;;;;5023422;28;20537;-70
2023/04/06 07:09:03;;;;;;;15.00;13.25;;;5.20;82.70;;;;;;5000523;28;20045;-70
2023/04/06 07:11:28;;;;;;;;;;;5.30;82.50;;;;;;5030175;28;20061;-70
2023/04/06 07:13:54;;;;;;;15.63;12.48;;;5.40;82.50;;;;;;5037579;28;19937;-70
2023/04/06 07:16:23;;;;;;;15.35;12.73;;;5.40;82.60;;;;;;5047133;28;20045;-71
2023/04/06 07:18:48;;;;;;;15.10;13.27;;;5.40;82.50;;;;;;5042855;28;20397;-70
2023/04/06 07:21:14;;;;;;;14.65;13.15;;;5.50;82.50;;;;;;5046718;28;20119;-71
2023/04/06 07:23:39;;;;;;;18.10;13.80;;;5.60;83.00;;;;;;5041554;28;20037;-69
2023/04/06 07:26:05;;;;;;;16.10;13.13;;;5.70;83.20;;;;;;5045918;28;20049;-69
2023/04/06 07:28:31;;;;;;;16.17;13.60;;;5.80;83.30;;;;;;5045830;28;20174;-66
2023/04/06 07:30:56;;;;;;;16.20;14.45;;;5.90;83.40;;;;;;5049225;28;20048;-70
2023/04/06 07:33:22;;;;;;;17.60;14.70;;;6.00;83.30;;;;;;5054061;28;20098;-69
2023/04/06 07:35:48;;;;;;;15.43;13.32;;;6.00;83.00;;;;;;5041982;28;20041;-68
2023/04/06 07:38:13;;;;;;;21.00;16.25;;;6.10;82.90;;;;;;5046063;28;20041;-69
2023/04/06 07:40:39;;;;;;;23.70;16.48;;;6.20;82.80;;;;;;5047246;28;20046;-68
2023/04/06 07:43:05;;;;;;;21.38;15.98;;;6.30;82.40;;;;;;5043843;28;20120;-69
2023/04/06 07:45:31;;;;;;;15.85;13.82;;;6.40;82.10;;;;;;5053394;28;20446;-69
2023/04/06 07:47:57;;;;;;;16.33;14.52;;;6.50;81.40;;;;;;5047916;28;20087;-68
2023/04/06 07:50:22;;;;;;;20.20;15.07;;;6.50;80.60;;;;;;5043909;28;20046;-68
2023/04/06 07:52:48;;;;;;;20.00;15.40;;;6.60;80.30;;;;;;5041645;28;20040;-68
2023/04/06 07:55:14;;;;;;;18.38;14.27;;;6.70;80.20;;;;;;5042554;28;20053;-72
2023/04/06 07:57:39;;;;;;;17.05;14.65;;;6.80;80.20;;;;;;5035370;28;20050;-69
2023/04/06 08:00:06;;;;;;;16.92;14.43;;;6.80;80.20;;;;;;5046954;28;20079;-67
2023/04/06 08:02:32;;;;;;;18.13;13.90;;;6.90;79.70;;;;;;5056621;28;20057;-68
2023/04/06 08:04:57;;;;;;;16.90;13.60;;;6.90;79.20;;;;;;5037292;28;20060;-68
2023/04/06 08:07:23;;;;;;;15.05;13.43;;;7.00;78.90;;;;;;5048092;28;20041;-69
2023/04/06 08:09:49;;;;;;;16.63;13.52;;;7.10;78.40;;;;;;5063364;28;20521;-68
2023/04/06 08:12:14;;;;;;;18.58;13.70;;;7.20;78.20;;;;;;5072715;28;20484;-68
2023/04/06 08:14:40;;;;;;;16.40;14.63;;;7.30;78.40;;;;;;5057518;28;20060;-68
2023/04/06 08:17:06;;;;;;;18.02;14.23;;;7.40;78.20;;;;;;5051543;28;20053;-69
2023/04/06 08:19:31;;;;;;;16.55;14.15;;;7.50;78.00;;;;;;5063775;28;20056;-68
2023/04/06 08:21:57;;;;;;;18.35;14.80;;;7.50;77.60;;;;;;5071072;28;20037;-68
2023/04/06 08:24:23;;;;;;;17.20;14.73;;;7.50;77.40;;;;;;5044946;28;20088;-69
2023/04/06 08:26:48;;;;;;;15.38;13.88;;;7.80;77.60;;;;;;5063279;28;20039;-67
2023/04/06 08:29:14;;;;;;;16.00;14.30;;;7.80;77.60;;;;;;5069937;28;20041;-68
2023/04/06 08:31:40;;;;;;;16.75;14.18;;;7.90;76.80;;;;;;5068562;28;20048;-67
2023/04/06 08:34:06;;;;;;;21.27;14.70;;;8.00;76.60;;;;;;5064499;28;20044;-68
2023/04/06 08:36:32;;;;;;;15.43;13.80;;;8.20;76.20;;;;;;5069960;28;20048;-69
2023/04/06 08:39:00;;;;;;;17.05;14.63;;;8.20;75.90;;;;;;5074416;28;20041;-69
2023/04/06 08:41:26;;;;;;;;;;;8.30;75.20;;;;;;5042883;28;20912;-68
2023/04/06 08:44:01;;;;;;;15.88;14.10;;;8.40;75.10;;;;;;5053963;28;20391;-69
2023/04/06 08:46:31;;;;;;;15.98;13.98;;;8.50;74.80;;;;;;5044204;28;20473;-68
2023/04/06 08:48:58;;;;;;;16.20;14.50;;;8.60;74.20;;;;;;5062357;28;20037;-69
2023/04/06 08:51:27;;;;;;;16.10;14.38;;;8.60;74.20;;;;;;5066497;28;20042;-69
2023/04/06 08:53:55;;;;;;;17.63;14.88;;;8.80;74.00;;;;;;5036343;28;20048;-69
2023/04/06 08:56:25;;;;;;;20.20;15.18;;;8.90;73.90;;;;;;5054382;28;20477;-69
2023/04/06 08:58:52;;;;;;;20.80;15.50;;;9.00;73.80;;;;;;5051256;28;20044;-68
2023/04/06 09:01:21;;;;;;;17.83;15.43;;;9.10;73.50;;;;;;5060061;28;20096;-69
2023/04/06 09:03:52;;;;;;;23.90;18.60;;;9.10;72.60;;;;;;5062150;28;20484;-69
2023/04/06 09:06:18;;;;;;;22.00;18.35;;;9.20;71.90;;;;;;5054404;28;20076;-69
2023/04/06 09:08:46;;;;;;;19.98;16.83;;;9.30;71.90;;;;;;5057350;28;20068;-69
2023/04/06 09:11:12;;;;;;;20.70;16.58;;;9.40;72.00;;;;;;5042325;28;20041;-69
2023/04/06 09:13:55;;;;;;;18.48;15.90;;;9.40;71.50;;;;;;5061647;28;20139;-69
2023/04/06 09:16:22;;;;;;;19.15;15.48;;;9.50;71.70;;;;;;5056069;28;20453;-69
2023/04/06 09:18:49;;;;;;;22.23;16.13;;;9.60;72.00;;;;;;5063477;28;20059;-68
2023/04/06 09:21:18;;;;;;;17.45;15.13;;;9.70;72.00;;;;;;5065121;28;20040;-68
2023/04/06 09:23:44;;;;;;;17.73;15.43;;;9.80;72.10;;;;;;5049451;28;20080;-68
2023/04/06 09:26:17;;;;;;;17.83;15.20;;;9.90;71.70;;;;;;5067784;28;20055;-68
2023/04/06 09:28:51;;;;;;;20.15;15.13;;;9.90;70.40;;;;;;5063971;28;20059;-69
2023/04/06 09:31:28;;;;;;;18.13;15.45;;;10.00;70.30;;;;;;5067631;28;20041;-69
2023/04/06 09:33:56;;;;;;;19.80;15.38;;;10.10;70.80;;;;;;5044297;28;20094;-68
2023/04/06 09:36:41;;;;;;;17.13;15.15;;;10.30;70.70;;;;;;5063199;28;20040;-68
2023/04/06 09:39:07;;;;;;;16.65;14.75;;;10.40;70.10;;;;;;5060438;28;20045;-68
2023/04/06 09:41:36;;;;;;;16.95;15.15;;;10.50;70.10;;;;;;5049578;28;20498;-68
2023/04/06 09:44:07;;;;;;;18.00;16.02;;;10.70;69.80;;;;;;5052684;28;20461;-68
2023/04/06 09:46:35;;;;;;;21.08;16.15;;;10.80;68.50;;;;;;5063478;28;20127;-68
2023/04/06 09:49:05;;;;;;;20.42;16.58;;;10.90;67.30;;;;;;5063486;28;20040;-68
2023/04/06 09:51:52;;;;;;;20.20;16.92;;;11.00;66.00;;;;;;5047188;28;20118;-69
2023/04/06 09:54:21;;;;;;;20.25;18.10;;;11.00;65.30;;;;;;5044050;28;20052;-69
2023/04/06 09:56:50;;;;;;;22.30;17.27;;;11.00;64.30;;;;;;5067620;28;20066;-70
2023/04/06 09:59:35;;;;;;;21.90;17.42;;;11.00;64.50;;;;;;5049666;28;20536;-70
2023/04/06 10:02:05;;;;;;;22.95;18.15;;;11.00;63.80;;;;;;5070987;28;20106;-70
2023/04/06 10:04:46;;;;;;;23.67;18.15;;;11.00;63.70;;;;;;5055088;28;20048;-70
2023/04/06 10:07:13;;;;;;;20.88;17.48;;;11.00;64.30;;;;;;5055175;28;20045;-70
2023/04/06 10:09:38;;;;;;;22.63;20.27;;;11.10;64.30;;;;;;5057680;28;20099;-70
2023/04/06 10:12:05;;;;;;;24.95;18.98;;;11.10;63.40;;;;;;5034927;28;20519;-70
2023/04/06 10:14:37;;;;;;;23.60;20.55;;;11.20;63.20;;;;;;5055438;28;20086;-70
2023/04/06 10:17:04;;;;;;;26.40;21.17;;;11.20;62.90;;;;;;5052902;28;20045;-70
2023/04/06 10:19:49;;;;;;;27.77;21.48;;;11.20;61.90;;;;;;5053983;28;20127;-69
2023/04/06 10:22:29;;;;;;;27.23;21.80;;;11.20;61.70;;;;;;5054432;28;20041;-70
2023/04/06 10:24:54;;;;;;;27.85;23.30;;;11.20;61.60;;;;;;5053761;28;20045;-70
2023/04/06 10:27:30;;;;;;;23.98;21.20;;;11.20;62.00;;;;;;5053736;28;20115;-70
2023/04/06 10:30:02;;;;;;;28.25;23.20;;;11.20;61.80;;;;;;5052059;28;20072;-70
2023/04/06 10:32:36;;;;;;;28.55;23.17;;;11.20;61.30;;;;;;5052893;28;20033;-70
2023/04/06 10:35:12;;;;;;;27.35;22.63;;;11.30;61.50;;;;;;5053476;28;20045;-70
2023/04/06 10:38:00;;;;;;;26.58;22.40;;;11.40;61.50;;;;;;5059371;28;20083;-70
2023/04/06 10:40:28;;;;;;;;;;;11.50;60.90;;;;;;5025312;28;20080;-71
2023/04/06 10:42:55;;;;;;;24.77;21.95;;;11.70;61.70;;;;;;5054513;28;20336;-71
2023/04/06 10:45:25;;;;;;;25.23;22.08;;;11.70;60.90;;;;;;5045207;28;20091;-72
2023/04/06 10:47:55;;;;;;;25.58;22.52;;;11.80;60.30;;;;;;5042819;28;20542;-71
2023/04/06 10:50:22;;;;;;;25.42;22.13;;;11.90;60.30;;;;;;5067712;28;20032;-72
2023/04/06 10:52:59;;;;;;;27.35;21.83;;;12.00;61.00;;;;;;5040173;28;20049;-75
2023/04/06 10:55:26;;;;;;;26.00;22.83;;;12.00;60.70;;;;;;5062980;28;20058;-70
2023/04/06 10:57:52;;;;;;;25.77;22.35;;;12.10;60.80;;;;;;5067487;28;20075;-70
2023/04/06 11:00:19;;;;;;;24.90;22.27;;;12.20;60.40;;;;;;5068857;28;20068;-69
2023/04/06 11:02:45;;;;;;;25.30;22.60;;;12.10;59.80;;;;;;5056990;28;20048;-70
2023/04/06 11:05:13;;;;;;;26.10;22.42;;;12.20;59.90;;;;;;5068861;28;20410;-68
2023/04/06 11:07:39;;;;;;;28.33;23.27;;;12.20;59.90;;;;;;5040725;28;20107;-71
2023/04/06 11:10:06;;;;;;;26.40;22.80;;;12.30;59.70;;;;;;5046208;28;20148;-68
2023/04/06 11:12:32;;;;;;;26.33;22.17;;;12.40;59.30;;;;;;5053537;28;20045;-70
2023/04/06 11:15:03;;;;;;;26.10;23.20;;;12.50;59.90;;;;;;5039898;28;20040;-69
2023/04/06 11:17:30;;;;;;;28.45;22.95;;;12.60;59.70;;;;;;5058447;28;20036;-69
2023/04/06 11:19:56;;;;;;;26.80;23.90;;;12.60;59.10;;;;;;5059299;28;20062;-67
2023/04/06 11:22:23;;;;;;;26.92;23.58;;;12.70;58.50;;;;;;5066929;28;20400;-69
2023/04/06 11:24:48;;;;;;;28.15;23.40;;;12.80;58.00;;;;;;5064885;28;20416;-68
2023/04/06 11:27:17;;;;;;;28.63;24.30;;;12.90;57.00;;;;;;5061070;28;20787;-71
2023/04/06 11:29:45;;;;;;;28.52;24.08;;;12.90;56.40;;;;;;5063334;28;20040;-70
2023/04/06 11:32:11;;;;;;;25.90;23.10;;;12.90;56.10;;;;;;5058603;28;20071;-70
2023/04/06 11:34:40;;;;;;;27.17;24.02;;;12.80;55.80;;;;;;5038583;28;20473;-69
2023/04/06 11:37:11;;;;;;;27.40;24.40;;;12.80;56.30;;;;;;5053990;28;20083;-69
2023/04/06 11:39:55;;;;;;;26.58;23.52;;;12.80;55.90;;;;;;5056784;28;20114;-69
2023/04/06 11:42:24;;;;;;;28.05;23.92;;;12.70;56.30;;;;;;5058398;28;20043;-68
2023/04/06 11:44:53;;;;;;;29.02;24.17;;;12.70;56.40;;;;;;5043944;28;20044;-68
2023/04/06 11:47:19;;;;;;;28.73;24.55;;;12.70;56.60;;;;;;5046549;28;20089;-68
2023/04/06 11:49:45;;;;;;;31.15;24.65;;;12.70;56.80;;;;;;5035530;28;20037;-68
2023/04/06 11:52:19;;;;;;;29.70;23.65;;;12.70;57.10;;;;;;5053617;28;20076;-69
2023/04/06 11:54:46;;;;;;;28.70;24.92;;;12.70;57.50;;;;;;5036506;28;20118;-69
2023/04/06 11:57:12;;;;;;;28.73;24.88;;;12.80;58.00;;;;;;5042532;28;20045;-69
2023/04/06 11:59:38;;;;;;;31.00;24.42;;;12.90;57.90;;;;;;5065434;28;20106;-68
2023/04/06 12:02:04;;;;;;;27.80;23.92;;;12.90;57.80;;;;;;5060681;28;20086;-69
2023/04/06 12:04:31;;;;;;;27.80;24.80;;;12.90;58.30;;;;;;5045996;28;20056;-69
2023/04/06 12:06:57;;;;;;;29.42;25.27;;;12.90;57.60;;;;;;5041304;28;20078;-69
2023/04/06 12:09:22;;;;;;;29.92;25.58;;;13.00;57.10;;;;;;5040289;28;20102;-69
2023/04/06 12:11:48;;;;;;;31.98;25.88;;;13.10;58.30;;;;;;5059722;28;20048;-68
2023/04/06 12:14:14;;;;;;;31.00;25.38;;;13.10;56.90;;;;;;5058336;28;20565;-68
2023/04/06 12:16:40;;;;;;;29.92;26.25;;;13.10;56.10;;;;;;5053719;28;20045;-69
2023/04/06 12:19:06;;;;;;;31.77;26.58;;;13.10;56.30;;;;;;5054829;28;20068;-68
2023/04/06 12:21:32;;;;;;;31.73;26.85;;;13.10;55.60;;;;;;5055979;28;20123;-69
2023/04/06 12:23:58;;;;;;;28.17;24.52;;;13.10;55.60;;;;;;5036995;28;20202;-68
2023/04/06 12:26:24;;;;;;;30.33;24.73;;;13.20;56.30;;;;;;5044382;28;20051;-69
2023/04/06 12:28:50;;;;;;;28.67;23.88;;;13.20;56.40;;;;;;5036494;28;20047;-70
2023/04/06 12:31:17;;;;;;;27.70;23.88;;;13.30;55.90;;;;;;5063163;28;20044;-70
2023/04/06 12:33:44;;;;;;;28.23;24.90;;;13.30;55.60;;;;;;5055294;28;20029;-69
2023/04/06 12:36:21;;;;;;;48.90;27.75;;;13.40;56.20;;;;;;5034443;28;20060;-71
2023/04/06 12:38:51;;;;;;;30.83;24.93;;;13.40;55.80;;;;;;5037300;28;20052;-72
2023/04/06 12:41:17;;;;;;;29.17;24.90;;;13.40;55.60;;;;;;5040884;28;20051;-72